Terminal Aerodrome Forecast
Issued by NWS Green Bay, WI

Home | Current Version | Previous Version | Graphics & Text | Print | Product List | Glossary On
Versions: 1 2 3 4 5 6 7 8 9 10 11 12 13 14 15 16 17 18 19 20 21 22
000
FTUS43 KGRB 230131 AAA
TAFGRB
TAF AMD
KGRB 230131Z 2302/2324 22007G15KT P6SM VCSH SCT050 BKN070
      TEMPO 2302/2304 5SM -RA BKN050
     FM230400 VRB03KT P6SM BKN050
     FM231500 06005KT P6SM VCSH OVC030 PROB30 2317/2323 4SM -SHRA
      BKN015
     FM232300 06007KT P6SM OVC035=

USA.gov is the U.S. government's official web portal to all federal, state and local government web resources and services.